• Join FlightAware (Why Join?)
  • Login
  • US Flag 
03:54AM EDT


 

Airport Tracker/Info


-or-


 

Live Flight TrackerFlight Track Log ✈ ASQ5941 ✈ 16-May-2013 ✈ KAVP - KORD

Flight Track Log - Related Links

Times and Time Zones

All times are in EDT time to prevent confusion due to time zone crossing. See the ASQ5941 flight status page for this flight to view local times or setup timezone preferences in your user account.

Time Position Orientation Groundspeed Altitude Reporting Facility
EDT Latitude Longitude Course Direction KTS MPH feet Rate Location/Type
05:09PM 41.2775 -75.8478 278° West 236 272 6,300  Level New York Center
05:10PM 41.3358 -75.8936 329° Northwest 247 284 7,900 840 Climbing New York Center
05:11PM 41.3983 -75.9428 329° Northwest 252 290 8,000 300 Climbing New York Center
05:12PM 41.4608 -75.9892 331° Northwest 252 290 8,600 1,380 Climbing New York Center
05:13PM 41.5290 -76.1018 312° West  Level FlightAware Approximate
05:13PM 41.5153 -76.0294 331° Northwest 252 290 10,800  Level New York Center
05:14PM 41.5800 -76.0733 333° Northwest 257 296 12,500 1,680 Climbing New York Center
05:15PM 41.6483 -76.1286 329° Northwest 257 296 14,200 1,380 Climbing New York Center
05:16PM 41.6839 -76.2203 297° West 257 296 15,400 1,080 Climbing New York Center
05:17PM 41.7086 -76.3142 289° West 279 321 16,400 1,080 Climbing New York Center
05:18PM 41.7411 -76.4197 292° West 294 338 17,600 1,140 Climbing New York Center
05:19PM 41.7747 -76.5422 290° West 311 358 18,800 1,140 Climbing New York Center
05:20PM 41.8069 -76.6533 291° West 311 358 19,900 1,140 Climbing New York Center
05:21PM 41.8367 -76.7647 290° West 311 358 21,100 1,140 Climbing New York Center
05:23PM 41.9000 -77.0008 290° West 317 365 23,400 900 Climbing Cleveland Center
05:24PM 41.9328 -77.1164 291° West 323 372 24,000 300 Climbing Cleveland Center
05:25PM 41.9656 -77.2403 290° West 342 394 24,000  Level Cleveland Center
05:26PM 42.0025 -77.3697 291° West 353 406 24,000  Level Cleveland Center
05:27PM 42.0353 -77.4994 289° West 366 421 24,000  Level Cleveland Center
05:28PM 42.0700 -77.6319 289° West 372 428 24,000  Level Cleveland Center
05:29PM 42.1069 -77.7675 290° West 378 435 24,000  Level Cleveland Center
05:30PM 42.1433 -77.9003 290° West 378 435 24,000  Level Cleveland Center
05:31PM 42.1800 -78.0389 290° West 378 435 24,000  Level Cleveland Center
05:32PM 42.2142 -78.1750 289° West 378 435 24,000  Level Cleveland Center
05:33PM 42.2503 -78.3083 290° West 378 435 24,000  Level Cleveland Center
05:34PM 42.2842 -78.4472 288° West 383 441 24,000  Level Cleveland Center
05:35PM 42.3200 -78.5836 290° West 383 441 24,000  Level Cleveland Center
05:36PM 42.3536 -78.7203 288° West 383 441 24,000  Level Cleveland Center
05:37PM 42.3869 -78.8600 288° West 383 441 24,000  Level Cleveland Center
05:38PM 42.4200 -78.9942 288° West 383 441 24,000  Level Cleveland Center
05:39PM 42.4531 -79.1200 290° West 383 441 24,000  Level Cleveland Center
05:40PM 42.4858 -79.2542 288° West 383 441 24,000  Level Cleveland Center
05:41PM 42.5000 -79.4003 278° West 383 441 24,000  Level Cleveland Center
05:42PM 42.5078 -79.5467 274° West 389 448 24,000  Level Cleveland Center
05:43PM 42.5131 -79.6903 273° West 389 448 24,000  Level Cleveland Center
05:44PM 42.5203 -79.8339 274° West 384 442 24,000  Level Cleveland Center
05:45PM 42.5253 -79.9944 272° West 384 442 24,000  Level Cleveland Center
05:46PM 42.5322 -80.1436 274° West 384 442 24,000  Level Cleveland Center
05:47PM 42.5369 -80.2872 273° West 384 442 24,000  Level Cleveland Center
05:48PM 42.5436 -80.4311 274° West 384 442 24,000  Level Cleveland Center
05:49PM 42.5478 -80.5633 272° West 384 442 24,000  Level Cleveland Center
05:50PM 42.5561 -80.7072 275° West 384 442 24,000  Level Cleveland Center
05:51PM 42.5600 -80.8539 272° West 384 442 24,000  Level Cleveland Center
05:52PM 42.5636 -81.0003 272° West 389 448 24,000  Level Cleveland Center
05:53PM 42.5714 -81.1500 274° West 389 448 24,000  Level Cleveland Center
05:54PM 42.5747 -81.2964 272° West 389 448 24,000  Level Cleveland Center
05:55PM 42.5819 -81.4461 274° West 394 453 24,000  Level Cleveland Center
05:56PM 42.6078 -81.6044 283° West 394 453 24,000  Level Cleveland Center
05:57PM 42.6356 -81.7458 285° West 395 455 24,000  Level Cleveland Center
05:58PM 42.6550 -81.8733 282° West 395 455 24,000  Level Cleveland Center
05:59PM 42.6806 -82.0150 284° West 395 455 24,000  Level Cleveland Center
06:00PM 42.7058 -82.1597 283° West 395 455 24,000  Level Cleveland Center
06:01PM 42.7308 -82.3017 284° West 395 455 24,000  Level Cleveland Center
06:02PM 42.7661 -82.4383 289° West 390 449 24,000  Level Cleveland Center
06:03PM 42.8458 -82.5400 317° Northwest 383 441 24,000  Level Cleveland Center
06:04PM 42.9275 -82.6389 318° Northwest 383 441 24,000  Level Cleveland Center
06:05PM 43.0111 -82.7381 319° Northwest 388 447 24,000  Level Cleveland Center
06:06PM 43.0925 -82.8378 318° Northwest 393 452 24,000  Level Cleveland Center
06:07PM 43.1211 -82.9753 286° West 380 437 24,000  Level Cleveland Center
06:08PM 43.0972 -83.1136 257° West 353 406 24,000  Level Cleveland Center
06:09PM 43.0669 -83.2544 254° West 370 426 24,000  Level Cleveland Center
06:10PM 43.0386 -83.3953 255° West 381 438 24,000  Level Cleveland Center
06:11PM 43.0103 -83.5333 254° West 381 438 24,000  Level Cleveland Center
06:12PM 42.9794 -83.6736 253° West 386 444 24,000  Level Cleveland Center
06:13PM 42.9589 -83.8175 259° West 386 444 24,000  Level Cleveland Center
06:14PM 42.9333 -83.9750 258° West 391 450 24,000  Level Cleveland Center
06:15PM 42.9294 -84.1053 268° West 386 444 24,000  Level Cleveland Center
06:17PM 42.9064 -84.3678 263° West 382 440 24,000  Level Chicago Center
06:18PM 42.8919 -84.5136 262° West 386 444 24,000  Level Chicago Center
06:19PM 42.8733 -84.6883 262° West 389 448 24,000  Level Chicago Center
06:20PM 42.8586 -84.8342 262° West 389 448 24,000  Level Chicago Center
06:21PM 42.8431 -84.9806 262° West 391 450 24,000  Level Chicago Center
06:22PM 42.8275 -85.1286 262° West 393 452 24,000  Level Chicago Center
06:23PM 42.8108 -85.2761 261° West 395 455 24,000  Level Chicago Center
06:24PM 42.7947 -85.4250 262° West 396 456 24,000  Level Chicago Center
06:25PM 42.7736 -85.5744 259° West 400 460 24,000  Level Chicago Center
06:26PM 42.7394 -85.7611 256° West 419 482 24,000 -180 Level Chicago Center
06:27PM 42.7108 -85.9164 256° West 420 483 23,700 -720 Descending Chicago Center
06:28PM 42.6831 -86.0694 256° West 415 478 22,500 -1,680 Descending Chicago Center
06:29PM 42.6567 -86.2156 256° West 401 461 20,200 -1,260 Descending Chicago Center
06:30PM 42.6289 -86.3572 255° West 388 447 20,000 -120 Descending Chicago Center
06:31PM 42.6019 -86.5036 256° West 398 458 20,000 -240 Level Chicago Center
06:32PM 42.5753 -86.6461 256° West 394 453 19,600 -2,100 Descending Chicago Center
06:33PM 42.5417 -86.8036 254° West 368 423 15,700 -3,540 Descending Chicago Center
06:35PM 42.5078 -86.9208 249° West 344 396 12,400 -2,700 Descending Chicago Center
06:36PM 42.4783 -87.0311 250° West 317 365 10,200 -1,200 Descending Chicago Center
06:37PM 42.4481 -87.1414 250° West 313 360 10,000 -120 Descending Chicago Center
06:38PM 42.4153 -87.2544 249° West 322 371 10,000 -480 Level Chicago Center
06:39PM 42.3850 -87.3517 247° West 280 322 9,100 -1,320 Descending Chicago Center
06:40PM 42.3322 -87.4556 236° Southwest 276 318 7,300 -1,020 Descending Chicago Center
06:41PM 42.2944 -87.5342 237° Southwest 273 314 7,000 -300 Descending Chicago Center
06:42PM 42.2511 -87.6203 236° Southwest 278 320 6,700 -780 Descending Chicago Center
06:43PM 42.1808 -87.6933 218° Southwest 271 312 5,500 -1,380 Descending Chicago Center
06:44PM 42.1258 -87.7575 221° Southwest 264 304 3,900 -1,440 Descending Chicago Center
06:45PM 42.0833 -87.8000 217° Southwest 219 252 2,800 -1,200 Descending Chicago TRACON
06:46PM 42.0500 -87.8500 228° Southwest 187 215 1,900 -900 Descending Chicago TRACON
06:47PM 42.0167 -87.8833 217° Southwest 147 169 1,000 -840 Descending Chicago TRACON
06:49PM 41.9817 -87.9067 217° Southwest  Level Estimated